Flight Briefing for CPX817

Departure Arrival
RAF Mildenhall (EGUN)
Click to view FAA NOTAMS
Ramstein Air Force Base (ETAR)
Click to view FAA NOTAMS
Departure Time Arrival Time
N/A N/A
Aircraft Distance
B767-300BDSF 322nm
Departure METAR Arrival METAR
EGUN 192256Z AUTO M 9999 BKN130 07/07 A3005 RMK AO2 SLP179 T00720072 $ ETAR 192256Z AUTO 00000KT 9999 CLR M03/M03 A3020 RMK AO2 VIS 3000 RWY08 SLP242 T10291029 401001029 $
Suggested Route





View recent IFR Routes data
Notes
USTRANSCOM CONTRACT FLIGHT

Charts and Procedures

Charts for EGUN
No chart available
Charts for ETAR
No chart available

Ventusky Weather




{"cat":null,"equip":null,"transponder":null,"pbn":"PBN\/","maxpax":null,"oew":"0.0","mzfw":"0.0","mtow":"0.0","mlw":"0.0","maxfuel":"0.0"} DEVELOPMENTAL TEST USE ONLY